Terminal Aerodrome Forecast
Issued by NWS Houston/Galveston TX

Home | Current Version | Previous Version | Text Only | Print | Product List | Glossary On
Versions: 1 2 3 4 5 6 7 8 9 10 11 12 13 14 15 16 17 18 19 20 21 22 23 24 25 26 27 28 29 30 31 32 33 34 35 36 37 38 39 40 41 42 43 44 45 46 47 48 49 50
921
FTUS44 KHGX 201740
TAFHOU
TAF
KHOU 201740Z 2018/2118 16015G25KT P6SM BKN018 BKN050
      TEMPO 2019/2022 SCT024 BKN035 OVC250
     FM210100 15013KT P6SM BKN015 OVC025
     FM210600 15010KT 6SM BR OVC009
     FM210900 17008KT 4SM BR BKN006
     FM211100 14008KT 5SM -SHRA BR VCTS OVC009CB
     FM211300 16008KT 5SM SHRA BR BKN008 OVC015
      TEMPO 2113/2117 VRB10G20KT 1SM TSRA OVC010CB=

USA.gov is the U.S. government's official web portal to all federal, state and local government web resources and services.